Time;durP1;ratioP1;P1;durP2;ratioP2;P2;SDS_P1;SDS_P2;PMS_P1;PMS_P2;Temp;Humidity;BMP_temperature;BMP_pressure;BME280_temperature;BME280_humidity;BME280_pressure;Samples;Min_cycle;Max_cycle;Signal;HPM_P1;HPM_P2
2022/12/26 00:00:28;;;;;;;;;;;;;;;;;;5030801;28;19909;-67
2022/12/26 00:02:53;;;;;;;;;;;;;;;;;;5030830;28;20389;-67
2022/12/26 00:05:19;;;;;;;;;;;;;;;;;;5030856;28;19924;-66
2022/12/26 00:07:45;;;;;;;;;;;;;;;;;;5030267;28;20417;-67
2022/12/26 00:10:11;;;;;;;;;;;;;;;;;;5030505;28;19909;-66
2022/12/26 00:12:37;;;;;;;;;;;;;;;;;;5030712;28;19913;-66
2022/12/26 00:15:03;;;;;;;;;;;;;;;;;;5030328;28;20390;-67
2022/12/26 00:17:29;;;;;;;;;;;;;;;;;;5030067;28;19913;-66
2022/12/26 00:19:55;;;;;;;;;;;;;;;;;;5030241;28;19913;-67
2022/12/26 00:22:20;;;;;;;;;;;;;;;;;;5030494;28;19919;-66
2022/12/26 00:24:46;;;;;;;;;;;;;;;;;;5029987;28;19909;-66
2022/12/26 00:27:12;;;;;;;;;;;;;;;;;;5030112;28;19917;-67
2022/12/26 00:29:38;;;;;;;;;;;;;;;;;;5030196;28;20308;-67
2022/12/26 00:32:04;;;;;;;;;;;;;;;;;;5029824;28;19920;-66
2022/12/26 00:34:30;;;;;;;;;;;;;;;;;;5028750;28;19967;-66
2022/12/26 00:36:56;;;;;;;;;;;;;;;;;;5029960;28;19967;-67
2022/12/26 00:39:22;;;;;;;;;;;;;;;;;;5030684;28;19924;-67
2022/12/26 00:41:48;;;;;;;;;;;;;;;;;;5029832;28;19948;-67
2022/12/26 00:44:13;;;;;;;;;;;;;;;;;;5030114;28;19913;-66
2022/12/26 00:46:39;;;;;;;;;;;;;;;;;;5029580;28;19917;-66
2022/12/26 00:49:05;;;;;;;;;;;;;;;;;;5029778;28;20019;-66
2022/12/26 00:51:31;;;;;;;;;;;;;;;;;;5030209;28;20047;-66
2022/12/26 00:53:57;;;;;;;;;;;;;;;;;;5030106;28;20275;-66
2022/12/26 00:56:23;;;;;;;;;;;;;;;;;;5029634;28;19981;-66
2022/12/26 00:58:49;;;;;;;;;;;;;;;;;;5029339;28;19913;-65
2022/12/26 01:01:15;;;;;;;;;;;;;;;;;;5029480;28;19919;-66
2022/12/26 01:03:41;;;;;;;;;;;;;;;;;;5029379;28;19936;-67
2022/12/26 01:06:07;;;;;;;;;;;;;;;;;;5029532;28;19921;-67
2022/12/26 01:08:33;;;;;;;;;;;;;;;;;;5029156;28;19913;-67
2022/12/26 01:10:58;;;;;;;;;;;;;;;;;;5029606;28;19913;-67
2022/12/26 01:13:24;;;;;;;;;;;;;;;;;;5029568;28;20012;-67
2022/12/26 01:15:50;;;;;;;;;;;;;;;;;;5028904;28;19920;-66
2022/12/26 01:18:16;;;;;;;;;;;;;;;;;;5029640;28;19919;-67
2022/12/26 01:20:42;;;;;;;;;;;;;;;;;;5029163;28;19948;-67
2022/12/26 01:23:08;;;;;;;;;;;;;;;;;;5028931;28;19925;-67
2022/12/26 01:25:34;;;;;;;;;;;;;;;;;;5027681;28;19937;-67
2022/12/26 01:28:00;;;;;;;;;;;;;;;;;;5029228;28;20366;-67
2022/12/26 01:30:26;;;;;;;;;;;;;;;;;;5028974;28;19913;-67
2022/12/26 01:32:51;;;;;;;;;;;;;;;;;;5029256;28;20021;-67
2022/12/26 01:35:17;;;;;;;;;;;;;;;;;;5029269;28;19959;-67
2022/12/26 01:37:43;;;;;;;;;;;;;;;;;;5028738;28;19920;-67
2022/12/26 01:40:09;;;;;;;;;;;;;;;;;;5029203;28;19910;-68
2022/12/26 01:42:35;;;;;;;;;;;;;;;;;;5028624;28;19913;-68
2022/12/26 01:45:01;;;;;;;;;;;;;;;;;;5029046;28;19913;-67
2022/12/26 01:47:27;;;;;;;;;;;;;;;;;;5028680;28;19963;-67
2022/12/26 01:49:53;;;;;;;;;;;;;;;;;;5029296;28;19963;-67
2022/12/26 01:52:19;;;;;;;;;;;;;;;;;;5028960;28;19913;-67
2022/12/26 01:54:45;;;;;;;;;;;;;;;;;;5028666;28;19914;-66
2022/12/26 01:57:10;;;;;;;;;;;;;;;;;;5028427;28;19966;-68
2022/12/26 01:59:36;;;;;;;;;;;;;;;;;;5028244;28;19916;-67
2022/12/26 02:02:02;;;;;;;;;;;;;;;;;;5029097;28;19921;-67
2022/12/26 02:07:13;;;;;;;;;;;;;;;;;;5028569;28;19936;-67
2022/12/26 02:09:39;;;;;;;;;;;;;;;;;;5028524;28;19913;-67
2022/12/26 02:12:05;;;;;;;;;;;;;;;;;;5031790;28;19913;-67
2022/12/26 02:14:30;;;;;;;;;;;;;;;;;;5032370;28;19932;-67
2022/12/26 02:16:56;;;;;;;;;;;;;;;;;;5032345;28;19913;-67
2022/12/26 02:19:22;;;;;;;;;;;;;;;;;;5033154;28;19978;-66
2022/12/26 02:21:48;;;;;;;;;;;;;;;;;;5032851;28;19920;-66
2022/12/26 02:24:14;;;;;;;;;;;;;;;;;;5032429;28;20004;-67
2022/12/26 02:26:40;;;;;;;;;;;;;;;;;;5031955;28;19974;-67
2022/12/26 02:29:06;;;;;;;;;;;;;;;;;;5032956;28;20369;-66
2022/12/26 02:31:32;;;;;;;;;;;;;;;;;;5031580;28;19909;-66
2022/12/26 02:33:58;;;;;;;;;;;;;;;;;;5025678;28;19917;-66
2022/12/26 02:36:23;;;;;;;;;;;;;;;;;;5032468;28;20006;-67
2022/12/26 02:38:49;;;;;;;;;;;;;;;;;;5030867;28;19920;-67
2022/12/26 02:41:15;;;;;;;;;;;;;;;;;;5032076;28;19913;-66
2022/12/26 02:43:41;;;;;;;;;;;;;;;;;;5031947;28;20457;-66
2022/12/26 02:48:51;;;;;;;;;;;;;;;;;;5032100;28;19920;-66
2022/12/26 03:13:15;;;;;;;;;;;;;;;;;;5031805;28;19993;-66
2022/12/26 03:18:26;;;;;;;;;;;;;;;;;;5031583;28;19967;-68
2022/12/26 03:20:52;;;;;;;;;;;;;;;;;;5025012;28;19910;-67
2022/12/26 03:23:18;;;;;;;;;;;;;;;;;;5030640;28;20382;-67
2022/12/26 03:28:28;;;;;;;;;;;;;;;;;;5031350;28;19916;-67
2022/12/26 03:30:54;;;;;;;;;;;;;;;;;;5031441;28;20008;-67
2022/12/26 03:36:04;;;;;;;;;;;;;;;;;;5031188;28;20448;-67
2022/12/26 03:38:30;;;;;;;;;;;;;;;;;;5031501;28;19913;-66
2022/12/26 04:19:32;;;;;;;;;;;;;;;;;;5024126;28;19920;-67
2022/12/26 04:44:07;;;;;;;;;;;;;;;;;;5027143;28;20440;-68
2022/12/26 04:46:33;;;;;;;;;;;;;;;;;;5027231;28;20012;-67
2022/12/26 04:51:44;;;;;;;;;;;;;;;;;;5026718;28;19953;-67
2022/12/26 04:54:09;;;;;;;;;;;;;;;;;;5029045;28;19913;-67
2022/12/26 04:56:35;;;;;;;;;;;;;;;;;;5029840;28;19991;-67
2022/12/26 04:59:01;;;;;;;;;;;;;;;;;;5029884;28;19945;-67
2022/12/26 05:09:41;;;;;;;;;;;;;;;;;;5029369;28;19960;-67
2022/12/26 05:12:07;;;;;;;;;;;;;;;;;;5029971;28;19964;-66
2022/12/26 05:14:34;;;;;;;;;;;;;;;;;;5029098;28;20464;-66
2022/12/26 05:31:00;;;;;;;;;;;;;;;;;;5026883;28;20767;-67
2022/12/26 05:36:11;;;;;;;;;;;;;;;;;;5025914;28;20541;-66
2022/12/26 05:38:37;;;;;;;;;;;;;;;;;;5027036;28;20067;-66
2022/12/26 05:41:03;;;;;;;;;;;;;;;;;;5026533;28;19913;-67
2022/12/26 05:43:29;;;;;;;;;;;;;;;;;;5026577;28;19909;-67
2022/12/26 05:45:54;;;;;;;;;;;;;;;;;;5028198;28;20007;-67
2022/12/26 05:48:20;;;;;;;;;;;;;;;;;;5030528;28;19910;-67
2022/12/26 05:50:46;;;;;;;;;;;;;;;;;;5030249;28;20404;-67
2022/12/26 05:53:12;;;;;;;;;;;;;;;;;;5031151;28;19963;-67
2022/12/26 05:55:38;;;;;;;;;;;;;;;;;;5032965;28;20311;-67
2022/12/26 05:58:04;;;;;;;;;;;;;;;;;;5032878;28;20019;-67
2022/12/26 06:00:30;;;;;;;;;;;;;;;;;;5032901;28;20444;-67
2022/12/26 06:02:56;;;;;;;;;;;;;;;;;;5032589;28;19913;-67
2022/12/26 06:05:21;;;;;;;;;;;;;;;;;;5032525;28;20424;-67
2022/12/26 06:07:47;;;;;;;;;;;;;;;;;;5032883;28;19959;-68
2022/12/26 06:10:13;;;;;;;;;;;;;;;;;;5033069;28;20526;-66
2022/12/26 06:12:39;;;;;;;;;;;;;;;;;;5032577;28;20007;-67
2022/12/26 06:15:05;;;;;;;;;;;;;;;;;;5032740;28;19925;-67
2022/12/26 06:17:31;;;;;;;;;;;;;;;;;;5032597;28;19909;-66
2022/12/26 06:19:57;;;;;;;;;;;;;;;;;;5032619;28;19913;-67
2022/12/26 06:22:23;;;;;;;;;;;;;;;;;;5012035;28;20378;-67
2022/12/26 06:24:48;;;;;;;;;;;;;;;;;;5032694;28;19909;-67
2022/12/26 06:27:14;;;;;;;;;;;;;;;;;;5032621;28;19944;-66
2022/12/26 06:29:40;;;;;;;;;;;;;;;;;;5032667;28;19921;-67
2022/12/26 06:32:06;;;;;;;;;;;;;;;;;;5032640;28;19913;-67
2022/12/26 06:34:32;;;;;;;;;;;;;;;;;;5031925;28;20370;-67
2022/12/26 06:36:58;;;;;;;;;;;;;;;;;;5032267;28;19910;-67
2022/12/26 06:39:24;;;;;;;;;;;;;;;;;;5032045;28;20433;-67
2022/12/26 06:41:50;;;;;;;;;;;;;;;;;;5032512;28;19913;-67
2022/12/26 06:44:16;;;;;;;;;;;;;;;;;;5032035;28;19987;-66
2022/12/26 06:46:41;;;;;;;;;;;;;;;;;;5032105;28;20069;-66
2022/12/26 06:49:07;;;;;;;;;;;;;;;;;;5031753;28;20475;-67
2022/12/26 06:51:34;;;;;;;;;;;;;;;;;;5032107;28;19952;-67
2022/12/26 06:54:03;;;;;;;;;;;;;;;;;;5032085;28;20483;-67
2022/12/26 06:56:29;;;;;;;;;;;;;;;;;;5031505;28;19913;-67
2022/12/26 06:58:55;;;;;;;;;;;;;;;;;;5031348;28;19936;-67
2022/12/26 07:01:21;;;;;;;;;;;;;;;;;;5031671;28;19996;-67
2022/12/26 07:03:46;;;;;;;;;;;;;;;;;;5032122;28;19913;-67
2022/12/26 07:06:12;;;;;;;;;;;;;;;;;;5031765;28;19971;-66
2022/12/26 07:08:38;;;;;;;;;;;;;;;;;;5031463;28;20027;-67
2022/12/26 07:11:04;;;;;;;;;;;;;;;;;;5032015;28;19909;-67
2022/12/26 07:13:30;;;;;;;;;;;;;;;;;;5031804;28;20248;-68
2022/12/26 07:15:56;;;;;;;;;;;;;;;;;;5031379;28;20015;-67
2022/12/26 07:18:22;;;;;;;;;;;;;;;;;;5031048;28;19982;-66
2022/12/26 07:20:48;;;;;;;;;;;;;;;;;;5032289;28;19920;-66
2022/12/26 07:23:13;;;;;;;;;;;;;;;;;;5031264;28;19944;-67
2022/12/26 07:25:39;;;;;;;;;;;;;;;;;;5031256;28;19917;-68
2022/12/26 07:28:05;;;;;;;;;;;;;;;;;;5025164;28;20278;-68
2022/12/26 07:30:31;;;;;;;;;;;;;;;;;;5031021;28;19913;-68
2022/12/26 07:32:57;;;;;;;;;;;;;;;;;;5031106;28;19992;-66
2022/12/26 07:35:23;;;;;;;;;;;;;;;;;;5031236;28;20416;-67
2022/12/26 07:37:49;;;;;;;;;;;;;;;;;;5030578;28;19913;-67
2022/12/26 07:40:15;;;;;;;;;;;;;;;;;;5029837;28;19952;-67
2022/12/26 07:42:40;;;;;;;;;;;;;;;;;;5029540;28;19917;-65
2022/12/26 07:45:06;;;;;;;;;;;;;;;;;;5030890;28;19909;-65
2022/12/26 07:47:32;;;;;;;;;;;;;;;;;;5030392;28;19913;-67
2022/12/26 07:49:58;;;;;;;;;;;;;;;;;;5030853;28;19909;-66
2022/12/26 07:52:24;;;;;;;;;;;;;;;;;;5031142;28;19941;-66
2022/12/26 07:54:50;;;;;;;;;;;;;;;;;;5030647;28;20374;-67
2022/12/26 07:57:16;;;;;;;;;;;;;;;;;;5031273;28;19964;-66
2022/12/26 07:59:42;;;;;;;;;;;;;;;;;;5030124;28;19999;-66
2022/12/26 08:02:07;;;;;;;;;;;;;;;;;;5023475;28;19917;-66
2022/12/26 08:04:33;;;;;;;;;;;;;;;;;;5029829;28;19917;-66
2022/12/26 08:06:59;;;;;;;;;;;;;;;;;;5029775;28;19925;-67
2022/12/26 08:09:25;;;;;;;;;;;;;;;;;;5029943;28;19917;-62
2022/12/26 08:11:51;;;;;;;;;;;;;;;;;;5029825;28;20389;-61
2022/12/26 08:14:17;;;;;;;;;;;;;;;;;;5029784;28;19983;-63
2022/12/26 08:16:43;;;;;;;;;;;;;;;;;;5029853;28;20568;-62
2022/12/26 08:19:09;;;;;;;;;;;;;;;;;;5030351;28;20016;-64
2022/12/26 08:21:35;;;;;;;;;;;;;;;;;;5026918;28;20702;-63
2022/12/26 08:24:01;;;;;;;;;;;;;;;;;;5029014;28;19913;-64
2022/12/26 08:26:27;;;;;;;;;;;;;;;;;;5029609;28;19921;-65
2022/12/26 08:28:53;;;;;;;;;;;;;;;;;;5030061;28;20297;-64
2022/12/26 08:31:18;;;;;;;;;;;;;;;;;;5029279;28;19992;-64
2022/12/26 08:33:44;;;;;;;;;;;;;;;;;;5029393;28;19951;-64
2022/12/26 08:36:11;;;;;;;;;;;;;;;;;;5029294;28;19916;-64
2022/12/26 08:38:37;;;;;;;;;;;;;;;;;;5029874;28;19924;-65
2022/12/26 08:41:03;;;;;;;;;;;;;;;;;;5030054;28;19909;-65
2022/12/26 08:43:29;;;;;;;;;;;;;;;;;;5029411;28;20286;-64
2022/12/26 08:45:55;;;;;;;;;;;;;;;;;;5023156;28;19925;-63
2022/12/26 08:48:21;;;;;;;;;;;;;;;;;;5025648;28;20263;-65
2022/12/26 08:50:47;;;;;;;;;;;;;;;;;;5026002;28;19917;-65
2022/12/26 08:53:13;;;;;;;;;;;;;;;;;;5027317;28;20399;-65
2022/12/26 08:55:39;;;;;;;;;;;;;;;;;;5027724;28;19996;-66
2022/12/26 08:58:05;;;;;;;;;;;;;;;;;;5026331;28;19978;-65
2022/12/26 09:00:31;;;;;;;;;;;;;;;;;;5027725;28;19921;-65
2022/12/26 09:02:57;;;;;;;;;;;;;;;;;;5027950;28;19917;-64
2022/12/26 09:05:23;;;;;;;;;;;;;;;;;;5025893;28;19917;-64
2022/12/26 09:07:49;;;;;;;;;;;;;;;;;;5027689;28;20031;-64
2022/12/26 09:10:15;;;;;;;;;;;;;;;;;;5026306;28;19913;-65
2022/12/26 09:12:41;;;;;;;;;;;;;;;;;;5027520;28;19913;-65
2022/12/26 09:15:06;;;;;;;;;;;;;;;;;;5027143;28;19921;-64
2022/12/26 09:17:32;;;;;;;;;;;;;;;;;;5025718;28;19917;-64
2022/12/26 09:19:58;;;;;;;;;;;;;;;;;;5026691;28;20009;-65
2022/12/26 09:25:08;;;;;;;;;;;;;;;;;;5025055;28;20079;-65
2022/12/26 09:27:34;;;;;;;;;;;;;;;;;;5026822;28;20008;-64
2022/12/26 09:30:00;;;;;;;;;;;;;;;;;;5027371;28;19924;-65
2022/12/26 09:32:26;;;;;;;;;;;;;;;;;;5027088;28;20421;-65
2022/12/26 09:34:52;;;;;;;;;;;;;;;;;;5027386;28;19913;-64
2022/12/26 09:37:18;;;;;;;;;;;;;;;;;;5027475;28;20275;-64
2022/12/26 09:39:44;;;;;;;;;;;;;;;;;;5027680;28;19953;-65
2022/12/26 09:42:10;;;;;;;;;;;;;;;;;;5026833;28;20350;-65
2022/12/26 09:44:36;;;;;;;;;;;;;;;;;;5027758;28;20383;-65
2022/12/26 09:47:02;;;;;;;;;;;;;;;;;;5027599;28;20452;-65
2022/12/26 09:49:28;;;;;;;;;;;;;;;;;;5027439;28;19913;-64
2022/12/26 09:51:54;;;;;;;;;;;;;;;;;;5023322;28;19916;-64
2022/12/26 09:54:20;;;;;;;;;;;;;;;;;;5026857;28;19921;-64
2022/12/26 09:56:46;;;;;;;;;;;;;;;;;;5027028;28;19917;-65
2022/12/26 09:59:12;;;;;;;;;;;;;;;;;;5026591;28;19913;-65
2022/12/26 10:01:38;;;;;;;;;;;;;;;;;;5026833;28;19953;-63
2022/12/26 10:04:03;;;;;;;;;;;;;;;;;;5026246;28;20051;-64
2022/12/26 10:06:29;;;;;;;;;;;;;;;;;;5026645;28;19933;-65
2022/12/26 10:08:55;;;;;;;;;;;;;;;;;;5026671;28;19920;-64
2022/12/26 10:11:21;;;;;;;;;;;;;;;;;;5025943;28;19917;-64
2022/12/26 10:13:47;;;;;;;;;;;;;;;;;;5025946;28;19922;-65
2022/12/26 10:16:13;;;;;;;;;;;;;;;;;;5026823;28;20271;-64
2022/12/26 10:18:39;;;;;;;;;;;;;;;;;;5024908;28;20008;-63
2022/12/26 10:21:05;;;;;;;;;;;;;;;;;;5026934;28;20302;-65
2022/12/26 10:23:31;;;;;;;;;;;;;;;;;;5041341;28;19920;-65
2022/12/26 10:25:57;;;;;;;;;;;;;;;;;;5026635;28;19925;-65
2022/12/26 10:28:23;;;;;;;;;;;;;;;;;;5025584;28;19917;-66
2022/12/26 10:30:49;;;;;;;;;;;;;;;;;;5027401;28;19968;-66
2022/12/26 10:33:15;;;;;;;;;;;;;;;;;;5030306;28;19917;-64
2022/12/26 10:35:40;;;;;;;;;;;;;;;;;;5030976;28;19920;-66
2022/12/26 10:38:06;;;;;;;;;;;;;;;;;;5030078;28;20366;-65
2022/12/26 10:40:32;;;;;;;;;;;;;;;;;;5027708;28;19925;-66
2022/12/26 10:42:58;;;;;;;;;;;;;;;;;;5030070;28;19921;-65
2022/12/26 10:45:24;;;;;;;;;;;;;;;;;;5028114;28;19919;-65
2022/12/26 10:47:50;;;;;;;;;;;;;;;;;;5030498;28;19927;-65
2022/12/26 10:50:16;;;;;;;;;;;;;;;;;;5029971;28;20382;-65
2022/12/26 10:52:42;;;;;;;;;;;;;;;;;;5030015;28;19913;-65
2022/12/26 10:55:08;;;;;;;;;;;;;;;;;;5029412;28;19917;-63
2022/12/26 10:57:34;;;;;;;;;;;;;;;;;;5030294;28;19970;-66
2022/12/26 10:59:59;;;;;;;;;;;;;;;;;;5025720;28;19991;-65
2022/12/26 11:02:25;;;;;;;;;;;;;;;;;;5029734;28;19939;-66
2022/12/26 11:04:51;;;;;;;;;;;;;;;;;;5027968;28;19917;-65
2022/12/26 11:07:17;;;;;;;;;;;;;;;;;;5028779;28;20006;-65
2022/12/26 11:09:44;;;;;;;;;;;;;;;;;;5029565;28;19913;-64
2022/12/26 11:12:10;;;;;;;;;;;;;;;;;;5029667;28;19921;-65
2022/12/26 11:14:36;;;;;;;;;;;;;;;;;;5029204;28;19936;-64
2022/12/26 11:17:02;;;;;;;;;;;;;;;;;;5029184;28;19920;-65
2022/12/26 11:19:28;;;;;;;;;;;;;;;;;;5029462;28;19920;-64
2022/12/26 11:21:53;;;;;;;;;;;;;;;;;;5027127;28;20398;-63
2022/12/26 11:24:19;;;;;;;;;;;;;;;;;;5029256;28;20398;-64
2022/12/26 11:26:45;;;;;;;;;;;;;;;;;;5029375;28;19925;-66
2022/12/26 11:29:11;;;;;;;;;;;;;;;;;;5031362;28;19913;-66
2022/12/26 11:31:37;;;;;;;;;;;;;;;;;;5030826;28;19913;-66
2022/12/26 11:34:03;;;;;;;;;;;;;;;;;;5031226;28;20004;-66
2022/12/26 11:36:29;;;;;;;;;;;;;;;;;;5030381;28;19967;-66
2022/12/26 11:38:55;;;;;;;;;;;;;;;;;;5030099;28;19917;-66
2022/12/26 11:41:38;;;;;;;;;;;;;;;;;;5031375;28;20028;-64
2022/12/26 11:44:04;;;;;;;;;;;;;;;;;;5030191;28;20615;-66
2022/12/26 11:46:31;;;;;;;;;;;;;;;;;;5030587;28;19928;-67
2022/12/26 11:48:57;;;;;;;;;;;;;;;;;;5031653;28;19914;-66
2022/12/26 11:51:23;;;;;;;;;;;;;;;;;;5031070;28;20439;-66
2022/12/26 11:53:48;;;;;;;;;;;;;;;;;;5030776;28;20443;-66
2022/12/26 11:56:14;;;;;;;;;;;;;;;;;;5029244;28;19916;-67
2022/12/26 11:58:40;;;;;;;;;;;;;;;;;;5030793;28;20487;-66
2022/12/26 12:01:06;;;;;;;;;;;;;;;;;;5030578;28;19966;-66
2022/12/26 12:03:32;;;;;;;;;;;;;;;;;;5031469;28;20011;-66
2022/12/26 12:05:58;;;;;;;;;;;;;;;;;;5030250;28;20359;-66
2022/12/26 12:08:24;;;;;;;;;;;;;;;;;;5023571;28;19964;-66
2022/12/26 12:10:50;;;;;;;;;;;;;;;;;;5030725;28;19936;-66
2022/12/26 12:13:16;;;;;;;;;;;;;;;;;;5030560;28;19920;-66
2022/12/26 12:15:42;;;;;;;;;;;;;;;;;;5030869;28;19928;-66
2022/12/26 12:18:08;;;;;;;;;;;;;;;;;;5030620;28;19920;-66
2022/12/26 12:20:34;;;;;;;;;;;;;;;;;;5030488;28;20472;-66
2022/12/26 12:22:59;;;;;;;;;;;;;;;;;;5030315;28;19909;-69
2022/12/26 12:25:25;;;;;;;;;;;;;;;;;;5025085;28;19913;-67
2022/12/26 12:27:51;;;;;;;;;;;;;;;;;;5029885;28;19917;-67
2022/12/26 12:30:17;;;;;;;;;;;;;;;;;;5028866;28;19920;-68
2022/12/26 12:32:43;;;;;;;;;;;;;;;;;;5030598;28;19919;-67
2022/12/26 12:35:09;;;;;;;;;;;;;;;;;;5029780;28;19913;-68
2022/12/26 12:37:35;;;;;;;;;;;;;;;;;;5029774;28;19996;-68
2022/12/26 12:40:01;;;;;;;;;;;;;;;;;;5030525;28;20243;-67
2022/12/26 12:42:27;;;;;;;;;;;;;;;;;;5030224;28;19909;-68
2022/12/26 12:44:52;;;;;;;;;;;;;;;;;;5030290;28;20461;-68
2022/12/26 12:47:18;;;;;;;;;;;;;;;;;;5028415;28;19921;-68
2022/12/26 12:49:44;;;;;;;;;;;;;;;;;;5030102;28;20354;-69
2022/12/26 12:52:10;;;;;;;;;;;;;;;;;;5029592;28;20000;-68
2022/12/26 12:54:36;;;;;;;;;;;;;;;;;;5029099;28;20313;-68
2022/12/26 12:57:02;;;;;;;;;;;;;;;;;;5029420;28;19909;-68
2022/12/26 12:59:28;;;;;;;;;;;;;;;;;;5030298;28;19916;-68
2022/12/26 13:01:54;;;;;;;;;;;;;;;;;;5029872;28;19913;-68
2022/12/26 13:04:20;;;;;;;;;;;;;;;;;;5029641;28;19996;-68
2022/12/26 13:06:45;;;;;;;;;;;;;;;;;;5029440;28;19925;-68
2022/12/26 13:09:11;;;;;;;;;;;;;;;;;;5029731;28;19909;-68
2022/12/26 13:11:37;;;;;;;;;;;;;;;;;;5029444;28;19909;-68
2022/12/26 13:14:04;;;;;;;;;;;;;;;;;;5030072;28;19925;-66
2022/12/26 13:16:30;;;;;;;;;;;;;;;;;;5029124;28;19920;-68
2022/12/26 13:18:56;;;;;;;;;;;;;;;;;;5029491;28;19913;-69
2022/12/26 13:21:22;;;;;;;;;;;;;;;;;;5029533;28;19959;-69
2022/12/26 13:26:32;;;;;;;;;;;;;;;;;;5029454;28;19971;-65
2022/12/26 13:28:58;;;;;;;;;;;;;;;;;;5029338;28;19917;-68
2022/12/26 13:31:24;;;;;;;;;;;;;;;;;;5028429;28;19909;-68
2022/12/26 13:33:50;;;;;;;;;;;;;;;;;;5029241;28;19913;-68
2022/12/26 13:36:16;;;;;;;;;;;;;;;;;;5029311;28;19975;-68
2022/12/26 13:38:41;;;;;;;;;;;;;;;;;;5029233;28;20013;-69
2022/12/26 13:43:55;;;;;;;;;;;;;;;;;;5029328;28;19916;-68
2022/12/26 13:46:21;;;;;;;;;;;;;;;;;;5028833;28;19963;-67
2022/12/26 13:48:47;;;;;;;;;;;;;;;;;;5029395;28;20445;-68
2022/12/26 13:51:13;;;;;;;;;;;;;;;;;;5029677;28;19913;-68
2022/12/26 13:53:39;;;;;;;;;;;;;;;;;;5029174;28;20267;-68
2022/12/26 13:56:04;;;;;;;;;;;;;;;;;;5029502;28;19944;-68
2022/12/26 13:58:30;;;;;;;;;;;;;;;;;;5029513;28;20340;-68
2022/12/26 14:00:56;;;;;;;;;;;;;;;;;;5029462;28;19909;-67
2022/12/26 14:03:22;;;;;;;;;;;;;;;;;;5029171;28;19920;-68
2022/12/26 14:05:48;;;;;;;;;;;;;;;;;;5029353;28;20397;-68
2022/12/26 14:08:14;;;;;;;;;;;;;;;;;;5032655;28;19917;-68
2022/12/26 14:10:42;;;;;;;;;;;;;;;;;;5033761;28;20003;-68
2022/12/26 14:13:08;;;;;;;;;;;;;;;;;;5033286;28;19913;-68
2022/12/26 14:15:34;;;;;;;;;;;;;;;;;;5033011;28;20397;-68
2022/12/26 14:18:00;;;;;;;;;;;;;;;;;;5032936;28;19913;-68
2022/12/26 14:20:25;;;;;;;;;;;;;;;;;;5032972;28;19916;-68
2022/12/26 14:22:51;;;;;;;;;;;;;;;;;;5032911;28;20000;-68
2022/12/26 14:25:17;;;;;;;;;;;;;;;;;;5032893;28;19936;-69
2022/12/26 14:27:43;;;;;;;;;;;;;;;;;;5031092;28;19925;-68
2022/12/26 14:30:09;;;;;;;;;;;;;;;;;;5033015;28;19916;-66
2022/12/26 14:32:35;;;;;;;;;;;;;;;;;;5030595;28;19920;-69
2022/12/26 14:35:01;;;;;;;;;;;;;;;;;;5023210;28;20030;-68
2022/12/26 14:37:27;;;;;;;;;;;;;;;;;;5029789;28;19913;-68
2022/12/26 14:39:53;;;;;;;;;;;;;;;;;;5027943;28;19918;-66
2022/12/26 14:45:03;;;;;;;;;;;;;;;;;;5031061;28;19920;-67
2022/12/26 14:47:29;;;;;;;;;;;;;;;;;;5030418;28;19921;-68
2022/12/26 14:49:55;;;;;;;;;;;;;;;;;;5029811;28;19917;-68
2022/12/26 14:52:21;;;;;;;;;;;;;;;;;;5030378;28;20006;-67
2022/12/26 14:54:47;;;;;;;;;;;;;;;;;;5036102;28;20294;-68
2022/12/26 14:57:12;;;;;;;;;;;;;;;;;;5030132;28;19959;-68
2022/12/26 14:59:38;;;;;;;;;;;;;;;;;;5029883;28;19921;-68
2022/12/26 15:02:04;;;;;;;;;;;;;;;;;;5029871;28;20644;-68
2022/12/26 15:04:30;;;;;;;;;;;;;;;;;;5029663;28;19917;-68
2022/12/26 15:06:56;;;;;;;;;;;;;;;;;;5029121;28;19925;-67
2022/12/26 15:09:22;;;;;;;;;;;;;;;;;;5029351;28;19976;-68
2022/12/26 15:11:48;;;;;;;;;;;;;;;;;;5030561;28;19964;-68
2022/12/26 15:14:14;;;;;;;;;;;;;;;;;;5028851;28;20714;-68
2022/12/26 15:16:42;;;;;;;;;;;;;;;;;;5028092;28;20195;-67
2022/12/26 15:19:07;;;;;;;;;;;;;;;;;;5028301;28;20002;-65
2022/12/26 15:21:33;;;;;;;;;;;;;;;;;;5029720;28;19917;-67
2022/12/26 15:23:59;;;;;;;;;;;;;;;;;;5029374;28;19963;-65
2022/12/26 15:26:25;;;;;;;;;;;;;;;;;;5029057;28;20024;-67
2022/12/26 15:28:51;;;;;;;;;;;;;;;;;;5029174;28;19932;-67
2022/12/26 15:31:17;;;;;;;;;;;;;;;;;;5028711;28;20393;-66
2022/12/26 15:33:43;;;;;;;;;;;;;;;;;;5029265;28;19971;-66
2022/12/26 15:36:09;;;;;;;;;;;;;;;;;;5029730;28;20366;-67
2022/12/26 15:38:35;;;;;;;;;;;;;;;;;;5028743;28;19924;-66
2022/12/26 15:41:00;;;;;;;;;;;;;;;;;;5028928;28;19917;-66
2022/12/26 15:43:26;;;;;;;;;;;;;;;;;;5029181;28;19917;-66
2022/12/26 15:45:52;;;;;;;;;;;;;;;;;;5028507;28;19921;-66
2022/12/26 15:48:18;;;;;;;;;;;;;;;;;;5027611;28;20289;-66
2022/12/26 15:50:44;;;;;;;;;;;;;;;;;;5029461;28;19917;-67
2022/12/26 15:53:10;;;;;;;;;;;;;;;;;;5028839;28;19921;-66
2022/12/26 15:55:36;;;;;;;;;;;;;;;;;;5026930;28;19913;-67
2022/12/26 15:58:02;;;;;;;;;;;;;;;;;;5028627;28;19920;-67
2022/12/26 16:00:28;;;;;;;;;;;;;;;;;;5028375;28;20297;-66
2022/12/26 16:02:54;;;;;;;;;;;;;;;;;;5028784;28;19917;-67
2022/12/26 16:05:20;;;;;;;;;;;;;;;;;;5024221;28;19924;-67
2022/12/26 16:07:45;;;;;;;;;;;;;;;;;;5028427;28;19959;-68
2022/12/26 16:10:11;;;;;;;;;;;;;;;;;;5028687;28;19928;-68
2022/12/26 16:12:43;;;;;;;;;;;;;;;;;;5028105;28;19927;-68
2022/12/26 16:15:08;;;;;;;;;;;;;;;;;;5027230;28;19929;-68
2022/12/26 16:17:34;;;;;;;;;;;;;;;;;;5027642;28;19963;-68
2022/12/26 16:20:00;;;;;;;;;;;;;;;;;;5027844;28;20675;-69
2022/12/26 16:25:11;;;;;;;;;;;;;;;;;;5027658;28;19924;-68
2022/12/26 16:27:37;;;;;;;;;;;;;;;;;;5026433;28;19932;-68
2022/12/26 16:30:03;;;;;;;;;;;;;;;;;;5034590;28;19917;-69
2022/12/26 16:32:29;;;;;;;;;;;;;;;;;;5027060;28;19924;-70
2022/12/26 16:34:55;;;;;;;;;;;;;;;;;;5028275;28;20650;-69
2022/12/26 16:37:21;;;;;;;;;;;;;;;;;;5028085;28;19921;-69
2022/12/26 16:39:47;;;;;;;;;;;;;;;;;;5027707;28;20003;-69
2022/12/26 16:42:12;;;;;;;;;;;;;;;;;;5027935;28;19917;-69
2022/12/26 16:44:38;;;;;;;;;;;;;;;;;;5027525;28;20181;-67
2022/12/26 16:47:04;;;;;;;;;;;;;;;;;;5027534;28;19925;-69
2022/12/26 16:49:31;;;;;;;;;;;;;;;;;;5027953;28;19917;-69
2022/12/26 16:51:56;;;;;;;;;;;;;;;;;;5027828;28;19917;-69
2022/12/26 16:54:22;;;;;;;;;;;;;;;;;;5027944;28;19987;-69
2022/12/26 16:56:48;;;;;;;;;;;;;;;;;;5027160;28;19917;-68
2022/12/26 16:59:14;;;;;;;;;;;;;;;;;;5028174;28;20485;-69
2022/12/26 17:01:40;;;;;;;;;;;;;;;;;;5026748;28;19917;-68
2022/12/26 17:04:07;;;;;;;;;;;;;;;;;;5028019;28;19963;-68
2022/12/26 17:06:33;;;;;;;;;;;;;;;;;;5028236;28;19971;-68
2022/12/26 17:08:59;;;;;;;;;;;;;;;;;;5028848;28;19909;-67
2022/12/26 17:11:25;;;;;;;;;;;;;;;;;;5028502;28;20279;-68
2022/12/26 17:13:51;;;;;;;;;;;;;;;;;;5027924;28;19932;-67
2022/12/26 17:16:16;;;;;;;;;;;;;;;;;;5029230;28;20450;-68
2022/12/26 17:18:42;;;;;;;;;;;;;;;;;;5028777;28;19909;-68
2022/12/26 17:21:08;;;;;;;;;;;;;;;;;;5028824;28;20382;-67
2022/12/26 17:23:34;;;;;;;;;;;;;;;;;;5027932;28;20005;-68
2022/12/26 17:26:00;;;;;;;;;;;;;;;;;;5028269;28;20012;-67
2022/12/26 17:28:26;;;;;;;;;;;;;;;;;;5029395;28;19913;-69
2022/12/26 17:30:52;;;;;;;;;;;;;;;;;;5029205;28;19913;-68
2022/12/26 17:33:18;;;;;;;;;;;;;;;;;;5028922;28;19917;-68
2022/12/26 17:35:44;;;;;;;;;;;;;;;;;;5028834;28;20346;-68
2022/12/26 17:38:10;;;;;;;;;;;;;;;;;;5029111;28;19913;-68
2022/12/26 17:40:35;;;;;;;;;;;;;;;;;;5028314;28;19999;-66
2022/12/26 17:43:01;;;;;;;;;;;;;;;;;;5027989;28;19925;-68
2022/12/26 17:45:27;;;;;;;;;;;;;;;;;;5028848;28;20016;-68
2022/12/26 17:47:53;;;;;;;;;;;;;;;;;;5028080;28;20351;-68
2022/12/26 17:50:19;;;;;;;;;;;;;;;;;;5028720;28;20350;-67
2022/12/26 17:52:45;;;;;;;;;;;;;;;;;;5027111;28;20028;-67
2022/12/26 17:55:11;;;;;;;;;;;;;;;;;;5027762;28;19932;-67
2022/12/26 17:57:37;;;;;;;;;;;;;;;;;;5028804;28;19913;-68
2022/12/26 18:00:03;;;;;;;;;;;;;;;;;;5028685;28;19919;-68
2022/12/26 18:02:29;;;;;;;;;;;;;;;;;;5027954;28;20623;-68
2022/12/26 18:04:55;;;;;;;;;;;;;;;;;;5028669;28;20401;-68
2022/12/26 18:07:21;;;;;;;;;;;;;;;;;;5028221;28;19944;-67
2022/12/26 18:09:47;;;;;;;;;;;;;;;;;;5027876;28;19913;-68
2022/12/26 18:12:12;;;;;;;;;;;;;;;;;;5028497;28;19913;-68
2022/12/26 18:14:38;;;;;;;;;;;;;;;;;;5028594;28;19925;-68
2022/12/26 18:17:04;;;;;;;;;;;;;;;;;;5028310;28;20523;-67
2022/12/26 18:19:30;;;;;;;;;;;;;;;;;;5028619;28;19909;-68
2022/12/26 18:21:56;;;;;;;;;;;;;;;;;;5028471;28;20370;-68
2022/12/26 18:24:22;;;;;;;;;;;;;;;;;;5028196;28;19913;-68
2022/12/26 18:26:48;;;;;;;;;;;;;;;;;;5028898;28;19921;-68
2022/12/26 18:29:14;;;;;;;;;;;;;;;;;;5028164;28;20325;-69
2022/12/26 18:31:40;;;;;;;;;;;;;;;;;;5028167;28;19913;-69
2022/12/26 18:34:05;;;;;;;;;;;;;;;;;;5028238;28;20356;-68
2022/12/26 18:36:31;;;;;;;;;;;;;;;;;;5027670;28;19925;-69
2022/12/26 18:38:57;;;;;;;;;;;;;;;;;;5027900;28;20385;-68
2022/12/26 18:41:23;;;;;;;;;;;;;;;;;;5028062;28;20298;-68
2022/12/26 18:43:49;;;;;;;;;;;;;;;;;;5028552;28;19909;-69
2022/12/26 18:46:15;;;;;;;;;;;;;;;;;;5028609;28;19921;-68
2022/12/26 18:48:41;;;;;;;;;;;;;;;;;;5028268;28;19921;-69
2022/12/26 18:51:07;;;;;;;;;;;;;;;;;;5027871;28;19955;-67
2022/12/26 18:53:33;;;;;;;;;;;;;;;;;;5028259;28;19909;-69